sensor_id;sensor_type;location;lat;lon;timestamp;P1;durP1;ratioP1;P2;durP2;ratioP2
70733;SDS011;58320;48.804;9.252;2022-08-02T00:01:15;3.45;;;1.63;;
70733;SDS011;58320;48.804;9.252;2022-08-02T00:03:41;4.00;;;2.10;;
70733;SDS011;58320;48.804;9.252;2022-08-02T00:06:07;5.50;;;2.60;;
70733;SDS011;58320;48.804;9.252;2022-08-02T00:08:33;5.43;;;2.60;;
70733;SDS011;58320;48.804;9.252;2022-08-02T00:10:58;4.80;;;2.67;;
70733;SDS011;58320;48.804;9.252;2022-08-02T00:13:24;4.47;;;2.08;;
70733;SDS011;58320;48.804;9.252;2022-08-02T00:15:50;5.00;;;2.17;;
70733;SDS011;58320;48.804;9.252;2022-08-02T00:18:16;4.53;;;1.95;;
70733;SDS011;58320;48.804;9.252;2022-08-02T00:20:42;4.05;;;1.90;;
70733;SDS011;58320;48.804;9.252;2022-08-02T00:23:08;3.83;;;2.17;;
70733;SDS011;58320;48.804;9.252;2022-08-02T00:25:33;3.72;;;2.00;;
70733;SDS011;58320;48.804;9.252;2022-08-02T00:27:59;3.92;;;1.98;;
70733;SDS011;58320;48.804;9.252;2022-08-02T00:30:25;4.93;;;1.90;;
70733;SDS011;58320;48.804;9.252;2022-08-02T00:32:51;4.40;;;1.75;;
70733;SDS011;58320;48.804;9.252;2022-08-02T00:35:17;3.33;;;1.70;;
70733;SDS011;58320;48.804;9.252;2022-08-02T00:37:42;3.37;;;1.80;;
70733;SDS011;58320;48.804;9.252;2022-08-02T00:40:08;4.15;;;1.90;;
70733;SDS011;58320;48.804;9.252;2022-08-02T00:42:35;4.55;;;1.90;;
70733;SDS011;58320;48.804;9.252;2022-08-02T00:45:02;4.65;;;1.95;;
70733;SDS011;58320;48.804;9.252;2022-08-02T00:47:29;3.67;;;2.00;;
70733;SDS011;58320;48.804;9.252;2022-08-02T00:49:55;3.83;;;2.00;;
70733;SDS011;58320;48.804;9.252;2022-08-02T00:52:21;3.92;;;2.08;;
70733;SDS011;58320;48.804;9.252;2022-08-02T00:54:48;4.93;;;2.38;;
70733;SDS011;58320;48.804;9.252;2022-08-02T00:57:14;3.67;;;2.25;;
70733;SDS011;58320;48.804;9.252;2022-08-02T00:59:40;4.07;;;1.97;;
70733;SDS011;58320;48.804;9.252;2022-08-02T01:02:06;3.50;;;2.03;;
70733;SDS011;58320;48.804;9.252;2022-08-02T01:04:33;4.22;;;1.80;;
70733;SDS011;58320;48.804;9.252;2022-08-02T01:06:59;4.40;;;2.23;;
70733;SDS011;58320;48.804;9.252;2022-08-02T01:09:28;5.03;;;2.17;;
70733;SDS011;58320;48.804;9.252;2022-08-02T01:11:53;4.82;;;2.20;;
70733;SDS011;58320;48.804;9.252;2022-08-02T01:14:20;4.03;;;2.10;;
70733;SDS011;58320;48.804;9.252;2022-08-02T01:16:53;4.90;;;2.45;;
70733;SDS011;58320;48.804;9.252;2022-08-02T01:19:33;4.55;;;2.53;;
70733;SDS011;58320;48.804;9.252;2022-08-02T01:31:49;3.60;;;2.05;;
70733;SDS011;58320;48.804;9.252;2022-08-02T01:37:35;3.95;;;1.90;;
70733;SDS011;58320;48.804;9.252;2022-08-02T01:40:10;4.17;;;2.90;;
70733;SDS011;58320;48.804;9.252;2022-08-02T01:42:44;4.70;;;2.53;;
70733;SDS011;58320;48.804;9.252;2022-08-02T01:45:14;3.83;;;2.20;;
70733;SDS011;58320;48.804;9.252;2022-08-02T01:47:42;4.65;;;2.60;;
70733;SDS011;58320;48.804;9.252;2022-08-02T01:50:11;3.95;;;2.30;;
70733;SDS011;58320;48.804;9.252;2022-08-02T01:52:47;4.43;;;2.42;;
70733;SDS011;58320;48.804;9.252;2022-08-02T01:55:26;4.43;;;2.57;;
70733;SDS011;58320;48.804;9.252;2022-08-02T01:57:59;4.30;;;2.23;;
70733;SDS011;58320;48.804;9.252;2022-08-02T02:00:31;4.70;;;2.38;;
70733;SDS011;58320;48.804;9.252;2022-08-02T02:02:59;6.65;;;3.00;;
70733;SDS011;58320;48.804;9.252;2022-08-02T02:05:29;5.03;;;2.80;;
70733;SDS011;58320;48.804;9.252;2022-08-02T02:07:58;6.05;;;2.80;;
70733;SDS011;58320;48.804;9.252;2022-08-02T02:10:29;4.87;;;2.70;;
70733;SDS011;58320;48.804;9.252;2022-08-02T02:12:59;4.03;;;2.23;;
70733;SDS011;58320;48.804;9.252;2022-08-02T02:15:28;4.40;;;2.55;;
70733;SDS011;58320;48.804;9.252;2022-08-02T02:17:56;4.90;;;2.88;;
70733;SDS011;58320;48.804;9.252;2022-08-02T02:20:23;3.88;;;2.25;;
70733;SDS011;58320;48.804;9.252;2022-08-02T02:22:49;5.03;;;2.50;;
70733;SDS011;58320;48.804;9.252;2022-08-02T02:25:17;4.43;;;2.77;;
70733;SDS011;58320;48.804;9.252;2022-08-02T02:27:47;5.07;;;2.40;;
70733;SDS011;58320;48.804;9.252;2022-08-02T02:30:30;5.75;;;3.05;;
70733;SDS011;58320;48.804;9.252;2022-08-02T02:33:00;5.22;;;2.78;;
70733;SDS011;58320;48.804;9.252;2022-08-02T02:35:28;5.07;;;2.80;;
70733;SDS011;58320;48.804;9.252;2022-08-02T02:37:59;5.78;;;2.80;;
70733;SDS011;58320;48.804;9.252;2022-08-02T02:40:27;4.43;;;2.20;;
70733;SDS011;58320;48.804;9.252;2022-08-02T02:42:53;6.20;;;2.80;;
70733;SDS011;58320;48.804;9.252;2022-08-02T02:45:22;5.25;;;2.85;;
70733;SDS011;58320;48.804;9.252;2022-08-02T02:47:49;5.20;;;2.80;;
70733;SDS011;58320;48.804;9.252;2022-08-02T02:50:16;4.93;;;2.88;;
70733;SDS011;58320;48.804;9.252;2022-08-02T02:52:42;5.90;;;2.92;;
70733;SDS011;58320;48.804;9.252;2022-08-02T02:55:09;5.10;;;2.77;;
70733;SDS011;58320;48.804;9.252;2022-08-02T02:57:36;4.23;;;2.20;;
70733;SDS011;58320;48.804;9.252;2022-08-02T03:00:05;5.43;;;2.60;;
70733;SDS011;58320;48.804;9.252;2022-08-02T03:02:37;4.68;;;2.60;;
70733;SDS011;58320;48.804;9.252;2022-08-02T03:05:06;4.50;;;2.65;;
70733;SDS011;58320;48.804;9.252;2022-08-02T03:07:33;3.80;;;2.33;;
70733;SDS011;58320;48.804;9.252;2022-08-02T03:10:00;6.83;;;2.67;;
70733;SDS011;58320;48.804;9.252;2022-08-02T03:12:28;4.38;;;2.45;;
70733;SDS011;58320;48.804;9.252;2022-08-02T03:14:54;6.35;;;2.90;;
70733;SDS011;58320;48.804;9.252;2022-08-02T03:17:38;5.07;;;2.58;;
70733;SDS011;58320;48.804;9.252;2022-08-02T03:20:10;4.53;;;2.30;;
70733;SDS011;58320;48.804;9.252;2022-08-02T03:22:44;5.30;;;2.40;;
70733;SDS011;58320;48.804;9.252;2022-08-02T03:25:11;4.40;;;2.40;;
70733;SDS011;58320;48.804;9.252;2022-08-02T03:27:40;5.20;;;2.50;;
70733;SDS011;58320;48.804;9.252;2022-08-02T03:30:07;5.00;;;2.75;;
70733;SDS011;58320;48.804;9.252;2022-08-02T03:32:35;4.95;;;2.30;;
70733;SDS011;58320;48.804;9.252;2022-08-02T03:35:04;4.13;;;2.38;;
70733;SDS011;58320;48.804;9.252;2022-08-02T03:37:34;5.63;;;2.40;;
70733;SDS011;58320;48.804;9.252;2022-08-02T03:40:02;3.97;;;2.30;;
70733;SDS011;58320;48.804;9.252;2022-08-02T03:42:32;4.97;;;2.58;;
70733;SDS011;58320;48.804;9.252;2022-08-02T03:44:58;7.65;;;2.80;;
70733;SDS011;58320;48.804;9.252;2022-08-02T03:47:27;4.65;;;2.70;;
70733;SDS011;58320;48.804;9.252;2022-08-02T03:49:54;5.37;;;2.60;;
70733;SDS011;58320;48.804;9.252;2022-08-02T03:52:21;5.13;;;2.90;;
70733;SDS011;58320;48.804;9.252;2022-08-02T03:54:48;4.50;;;2.65;;
70733;SDS011;58320;48.804;9.252;2022-08-02T03:57:14;5.93;;;2.70;;
70733;SDS011;58320;48.804;9.252;2022-08-02T03:59:40;6.85;;;2.90;;
70733;SDS011;58320;48.804;9.252;2022-08-02T04:02:09;5.40;;;3.00;;
70733;SDS011;58320;48.804;9.252;2022-08-02T04:04:35;4.97;;;2.88;;
70733;SDS011;58320;48.804;9.252;2022-08-02T04:07:01;5.88;;;2.63;;
70733;SDS011;58320;48.804;9.252;2022-08-02T04:09:27;5.00;;;3.00;;
70733;SDS011;58320;48.804;9.252;2022-08-02T04:11:53;5.13;;;2.80;;
70733;SDS011;58320;48.804;9.252;2022-08-02T04:14:19;5.27;;;2.73;;
70733;SDS011;58320;48.804;9.252;2022-08-02T04:16:47;5.70;;;2.75;;
70733;SDS011;58320;48.804;9.252;2022-08-02T04:20:01;5.32;;;2.50;;
70733;SDS011;58320;48.804;9.252;2022-08-02T04:22:08;4.93;;;2.70;;
70733;SDS011;58320;48.804;9.252;2022-08-02T04:24:42;6.37;;;2.70;;
70733;SDS011;58320;48.804;9.252;2022-08-02T04:27:12;5.27;;;2.40;;
70733;SDS011;58320;48.804;9.252;2022-08-02T04:29:40;5.05;;;2.80;;
70733;SDS011;58320;48.804;9.252;2022-08-02T04:32:06;4.68;;;2.83;;
70733;SDS011;58320;48.804;9.252;2022-08-02T04:34:33;5.38;;;2.60;;
70733;SDS011;58320;48.804;9.252;2022-08-02T04:36:59;4.85;;;2.47;;
70733;SDS011;58320;48.804;9.252;2022-08-02T04:39:25;5.23;;;2.87;;
70733;SDS011;58320;48.804;9.252;2022-08-02T04:41:52;4.95;;;2.90;;
70733;SDS011;58320;48.804;9.252;2022-08-02T04:44:18;3.90;;;2.30;;
70733;SDS011;58320;48.804;9.252;2022-08-02T04:46:44;4.50;;;2.40;;
70733;SDS011;58320;48.804;9.252;2022-08-02T04:49:10;4.00;;;2.43;;
70733;SDS011;58320;48.804;9.252;2022-08-02T04:51:40;4.43;;;2.17;;
70733;SDS011;58320;48.804;9.252;2022-08-02T04:54:08;5.93;;;2.65;;
70733;SDS011;58320;48.804;9.252;2022-08-02T04:56:34;4.50;;;2.60;;
70733;SDS011;58320;48.804;9.252;2022-08-02T04:59:04;6.07;;;3.35;;
70733;SDS011;58320;48.804;9.252;2022-08-02T05:01:30;5.05;;;2.30;;
70733;SDS011;58320;48.804;9.252;2022-08-02T05:03:56;4.40;;;2.30;;
70733;SDS011;58320;48.804;9.252;2022-08-02T05:06:22;4.00;;;2.13;;
70733;SDS011;58320;48.804;9.252;2022-08-02T05:08:48;3.63;;;1.90;;
70733;SDS011;58320;48.804;9.252;2022-08-02T05:11:15;5.43;;;2.30;;
70733;SDS011;58320;48.804;9.252;2022-08-02T05:13:40;3.90;;;2.10;;
70733;SDS011;58320;48.804;9.252;2022-08-02T05:16:06;4.25;;;2.08;;
70733;SDS011;58320;48.804;9.252;2022-08-02T05:18:32;5.18;;;1.88;;
70733;SDS011;58320;48.804;9.252;2022-08-02T05:20:58;7.67;;;1.97;;
70733;SDS011;58320;48.804;9.252;2022-08-02T05:23:24;3.60;;;2.00;;
70733;SDS011;58320;48.804;9.252;2022-08-02T05:25:50;3.80;;;2.10;;
70733;SDS011;58320;48.804;9.252;2022-08-02T05:28:16;4.90;;;2.30;;
70733;SDS011;58320;48.804;9.252;2022-08-02T05:30:41;4.77;;;2.20;;
70733;SDS011;58320;48.804;9.252;2022-08-02T05:33:07;4.22;;;2.10;;
70733;SDS011;58320;48.804;9.252;2022-08-02T05:35:33;7.43;;;2.30;;
70733;SDS011;58320;48.804;9.252;2022-08-02T05:37:59;6.93;;;2.40;;
70733;SDS011;58320;48.804;9.252;2022-08-02T05:40:25;4.10;;;2.42;;
70733;SDS011;58320;48.804;9.252;2022-08-02T05:42:50;3.63;;;2.15;;
70733;SDS011;58320;48.804;9.252;2022-08-02T05:45:17;3.67;;;1.80;;
70733;SDS011;58320;48.804;9.252;2022-08-02T05:47:43;5.30;;;2.37;;
70733;SDS011;58320;48.804;9.252;2022-08-02T05:50:08;5.18;;;2.33;;
70733;SDS011;58320;48.804;9.252;2022-08-02T05:52:45;5.63;;;2.88;;
70733;SDS011;58320;48.804;9.252;2022-08-02T05:55:17;6.87;;;2.77;;
70733;SDS011;58320;48.804;9.252;2022-08-02T06:00:25;4.75;;;2.45;;
70733;SDS011;58320;48.804;9.252;2022-08-02T06:06:03;5.63;;;2.80;;
70733;SDS011;58320;48.804;9.252;2022-08-02T06:08:45;6.20;;;2.60;;
70733;SDS011;58320;48.804;9.252;2022-08-02T06:11:21;6.03;;;2.20;;
70733;SDS011;58320;48.804;9.252;2022-08-02T06:13:48;3.90;;;2.40;;
70733;SDS011;58320;48.804;9.252;2022-08-02T06:16:15;4.65;;;2.40;;
70733;SDS011;58320;48.804;9.252;2022-08-02T06:18:43;9.43;;;2.78;;
70733;SDS011;58320;48.804;9.252;2022-08-02T06:21:10;4.20;;;2.55;;
70733;SDS011;58320;48.804;9.252;2022-08-02T06:23:40;4.95;;;2.72;;
70733;SDS011;58320;48.804;9.252;2022-08-02T06:26:08;4.93;;;2.42;;
70733;SDS011;58320;48.804;9.252;2022-08-02T06:28:36;4.40;;;2.30;;
70733;SDS011;58320;48.804;9.252;2022-08-02T06:31:04;5.00;;;2.90;;
70733;SDS011;58320;48.804;9.252;2022-08-02T06:33:31;6.82;;;2.72;;
70733;SDS011;58320;48.804;9.252;2022-08-02T06:36:05;9.43;;;3.72;;
70733;SDS011;58320;48.804;9.252;2022-08-02T06:38:54;7.57;;;3.20;;
70733;SDS011;58320;48.804;9.252;2022-08-02T06:41:41;5.45;;;2.95;;
70733;SDS011;58320;48.804;9.252;2022-08-02T06:44:12;5.97;;;3.10;;
70733;SDS011;58320;48.804;9.252;2022-08-02T06:46:37;5.30;;;2.73;;
70733;SDS011;58320;48.804;9.252;2022-08-02T06:49:03;7.03;;;3.40;;
70733;SDS011;58320;48.804;9.252;2022-08-02T06:51:29;5.63;;;3.17;;
70733;SDS011;58320;48.804;9.252;2022-08-02T06:53:55;5.65;;;3.03;;
70733;SDS011;58320;48.804;9.252;2022-08-02T06:56:21;5.50;;;3.00;;
70733;SDS011;58320;48.804;9.252;2022-08-02T06:58:47;7.18;;;3.30;;
70733;SDS011;58320;48.804;9.252;2022-08-02T07:01:13;6.07;;;3.10;;
70733;SDS011;58320;48.804;9.252;2022-08-02T07:03:39;6.20;;;3.40;;
70733;SDS011;58320;48.804;9.252;2022-08-02T07:06:05;7.53;;;4.00;;
70733;SDS011;58320;48.804;9.252;2022-08-02T07:08:36;6.75;;;3.15;;
70733;SDS011;58320;48.804;9.252;2022-08-02T07:11:06;5.68;;;3.00;;
70733;SDS011;58320;48.804;9.252;2022-08-02T07:13:33;7.80;;;3.72;;
70733;SDS011;58320;48.804;9.252;2022-08-02T07:16:00;7.03;;;3.33;;
70733;SDS011;58320;48.804;9.252;2022-08-02T07:18:27;6.75;;;3.83;;
70733;SDS011;58320;48.804;9.252;2022-08-02T07:20:53;7.63;;;4.30;;
70733;SDS011;58320;48.804;9.252;2022-08-02T07:23:19;6.53;;;4.00;;
70733;SDS011;58320;48.804;9.252;2022-08-02T07:25:45;6.32;;;3.67;;
70733;SDS011;58320;48.804;9.252;2022-08-02T07:28:12;6.55;;;3.42;;
70733;SDS011;58320;48.804;9.252;2022-08-02T07:30:41;10.40;;;3.88;;
70733;SDS011;58320;48.804;9.252;2022-08-02T07:33:08;6.37;;;3.50;;
70733;SDS011;58320;48.804;9.252;2022-08-02T07:35:34;9.68;;;4.00;;
70733;SDS011;58320;48.804;9.252;2022-08-02T07:38:00;11.52;;;3.45;;
70733;SDS011;58320;48.804;9.252;2022-08-02T07:40:26;6.80;;;3.25;;
70733;SDS011;58320;48.804;9.252;2022-08-02T07:42:53;7.60;;;3.70;;
70733;SDS011;58320;48.804;9.252;2022-08-02T07:45:21;7.05;;;4.10;;
70733;SDS011;58320;48.804;9.252;2022-08-02T07:47:47;6.28;;;3.67;;
70733;SDS011;58320;48.804;9.252;2022-08-02T07:50:14;6.77;;;3.20;;
70733;SDS011;58320;48.804;9.252;2022-08-02T07:52:42;5.73;;;3.40;;
70733;SDS011;58320;48.804;9.252;2022-08-02T07:55:09;7.75;;;4.25;;
70733;SDS011;58320;48.804;9.252;2022-08-02T07:57:38;6.75;;;4.00;;
70733;SDS011;58320;48.804;9.252;2022-08-02T08:00:05;5.88;;;3.30;;
70733;SDS011;58320;48.804;9.252;2022-08-02T08:02:33;4.97;;;3.30;;
70733;SDS011;58320;48.804;9.252;2022-08-02T08:05:00;8.13;;;3.80;;
70733;SDS011;58320;48.804;9.252;2022-08-02T08:07:26;10.07;;;4.32;;
70733;SDS011;58320;48.804;9.252;2022-08-02T08:09:52;6.72;;;3.85;;
70733;SDS011;58320;48.804;9.252;2022-08-02T08:12:18;6.17;;;3.53;;
70733;SDS011;58320;48.804;9.252;2022-08-02T08:14:44;8.63;;;4.32;;
70733;SDS011;58320;48.804;9.252;2022-08-02T08:17:10;5.95;;;3.58;;
70733;SDS011;58320;48.804;9.252;2022-08-02T08:19:36;6.27;;;3.47;;
70733;SDS011;58320;48.804;9.252;2022-08-02T08:22:01;6.10;;;3.10;;
70733;SDS011;58320;48.804;9.252;2022-08-02T08:24:28;6.03;;;3.72;;
70733;SDS011;58320;48.804;9.252;2022-08-02T08:26:54;5.10;;;3.60;;
70733;SDS011;58320;48.804;9.252;2022-08-02T08:29:20;9.20;;;3.83;;
70733;SDS011;58320;48.804;9.252;2022-08-02T08:31:47;6.70;;;3.77;;
70733;SDS011;58320;48.804;9.252;2022-08-02T08:34:13;8.37;;;3.57;;
70733;SDS011;58320;48.804;9.252;2022-08-02T08:36:39;11.05;;;4.30;;
70733;SDS011;58320;48.804;9.252;2022-08-02T08:39:06;7.57;;;4.15;;
70733;SDS011;58320;48.804;9.252;2022-08-02T08:41:33;6.90;;;3.70;;
70733;SDS011;58320;48.804;9.252;2022-08-02T08:44:00;7.57;;;4.10;;
70733;SDS011;58320;48.804;9.252;2022-08-02T08:46:29;5.93;;;4.00;;
70733;SDS011;58320;48.804;9.252;2022-08-02T08:48:59;6.07;;;3.25;;
70733;SDS011;58320;48.804;9.252;2022-08-02T08:51:37;5.25;;;3.53;;
70733;SDS011;58320;48.804;9.252;2022-08-02T08:54:08;6.25;;;4.15;;
70733;SDS011;58320;48.804;9.252;2022-08-02T08:56:38;8.18;;;4.18;;
70733;SDS011;58320;48.804;9.252;2022-08-02T08:59:06;5.82;;;3.50;;
70733;SDS011;58320;48.804;9.252;2022-08-02T09:01:32;7.55;;;3.70;;
70733;SDS011;58320;48.804;9.252;2022-08-02T09:03:59;5.77;;;3.60;;
70733;SDS011;58320;48.804;9.252;2022-08-02T09:06:25;6.53;;;3.63;;
70733;SDS011;58320;48.804;9.252;2022-08-02T09:08:51;9.52;;;4.07;;
70733;SDS011;58320;48.804;9.252;2022-08-02T09:11:19;4.90;;;3.38;;
70733;SDS011;58320;48.804;9.252;2022-08-02T09:13:52;5.05;;;3.53;;
70733;SDS011;58320;48.804;9.252;2022-08-02T09:16:37;4.90;;;3.42;;
70733;SDS011;58320;48.804;9.252;2022-08-02T09:19:16;5.93;;;3.67;;
70733;SDS011;58320;48.804;9.252;2022-08-02T09:22:00;5.57;;;3.80;;
70733;SDS011;58320;48.804;9.252;2022-08-02T09:24:42;5.88;;;3.78;;
70733;SDS011;58320;48.804;9.252;2022-08-02T09:27:10;9.33;;;3.83;;
70733;SDS011;58320;48.804;9.252;2022-08-02T09:29:45;7.37;;;3.97;;
70733;SDS011;58320;48.804;9.252;2022-08-02T09:32:13;7.22;;;4.70;;
70733;SDS011;58320;48.804;9.252;2022-08-02T09:34:51;7.57;;;4.10;;
70733;SDS011;58320;48.804;9.252;2022-08-02T09:37:22;7.32;;;4.28;;
70733;SDS011;58320;48.804;9.252;2022-08-02T09:39:49;7.32;;;4.57;;
70733;SDS011;58320;48.804;9.252;2022-08-02T09:42:15;8.50;;;5.25;;
70733;SDS011;58320;48.804;9.252;2022-08-02T09:45:00;6.33;;;3.83;;
70733;SDS011;58320;48.804;9.252;2022-08-02T09:47:27;6.97;;;4.00;;
70733;SDS011;58320;48.804;9.252;2022-08-02T09:49:56;6.75;;;3.85;;
70733;SDS011;58320;48.804;9.252;2022-08-02T09:52:26;6.50;;;4.00;;
70733;SDS011;58320;48.804;9.252;2022-08-02T09:54:53;5.50;;;3.83;;
70733;SDS011;58320;48.804;9.252;2022-08-02T09:57:26;6.13;;;3.28;;
70733;SDS011;58320;48.804;9.252;2022-08-02T09:59:56;8.93;;;4.13;;
70733;SDS011;58320;48.804;9.252;2022-08-02T10:02:22;5.15;;;3.65;;
70733;SDS011;58320;48.804;9.252;2022-08-02T10:04:49;7.57;;;4.00;;
70733;SDS011;58320;48.804;9.252;2022-08-02T10:07:16;5.35;;;4.00;;
70733;SDS011;58320;48.804;9.252;2022-08-02T10:09:42;5.03;;;3.97;;
70733;SDS011;58320;48.804;9.252;2022-08-02T10:12:10;6.30;;;3.90;;
70733;SDS011;58320;48.804;9.252;2022-08-02T10:14:38;6.38;;;3.80;;
70733;SDS011;58320;48.804;9.252;2022-08-02T10:17:05;4.88;;;3.30;;
70733;SDS011;58320;48.804;9.252;2022-08-02T10:19:31;4.20;;;3.10;;
70733;SDS011;58320;48.804;9.252;2022-08-02T10:24:35;5.22;;;3.60;;
70733;SDS011;58320;48.804;9.252;2022-08-02T10:27:05;4.78;;;3.33;;
70733;SDS011;58320;48.804;9.252;2022-08-02T10:29:39;7.00;;;3.58;;
70733;SDS011;58320;48.804;9.252;2022-08-02T10:32:12;5.77;;;3.10;;
70733;SDS011;58320;48.804;9.252;2022-08-02T10:35:03;5.13;;;3.63;;
70733;SDS011;58320;48.804;9.252;2022-08-02T10:37:34;5.10;;;3.40;;
70733;SDS011;58320;48.804;9.252;2022-08-02T10:40:03;4.95;;;3.40;;
70733;SDS011;58320;48.804;9.252;2022-08-02T10:45:18;5.10;;;3.53;;
70733;SDS011;58320;48.804;9.252;2022-08-02T10:47:56;5.22;;;3.15;;
70733;SDS011;58320;48.804;9.252;2022-08-02T10:53:24;4.95;;;3.28;;
70733;SDS011;58320;48.804;9.252;2022-08-02T10:55:50;4.78;;;3.47;;
70733;SDS011;58320;48.804;9.252;2022-08-02T10:58:19;4.93;;;3.33;;
70733;SDS011;58320;48.804;9.252;2022-08-02T11:00:52;5.00;;;3.60;;
70733;SDS011;58320;48.804;9.252;2022-08-02T11:08:29;5.43;;;3.88;;
70733;SDS011;58320;48.804;9.252;2022-08-02T11:10:59;5.50;;;3.38;;
70733;SDS011;58320;48.804;9.252;2022-08-02T11:22:36;5.57;;;3.35;;
70733;SDS011;58320;48.804;9.252;2022-08-02T11:27:48;5.73;;;3.27;;
70733;SDS011;58320;48.804;9.252;2022-08-02T11:30:18;7.07;;;3.22;;
70733;SDS011;58320;48.804;9.252;2022-08-02T11:32:45;4.45;;;2.63;;
70733;SDS011;58320;48.804;9.252;2022-08-02T11:35:11;4.88;;;3.05;;
70733;SDS011;58320;48.804;9.252;2022-08-02T11:37:41;4.10;;;3.28;;
70733;SDS011;58320;48.804;9.252;2022-08-02T11:42:41;4.10;;;3.03;;
70733;SDS011;58320;48.804;9.252;2022-08-02T11:45:09;4.93;;;2.95;;
70733;SDS011;58320;48.804;9.252;2022-08-02T11:47:44;4.20;;;3.10;;
70733;SDS011;58320;48.804;9.252;2022-08-02T11:50:11;6.20;;;3.27;;
70733;SDS011;58320;48.804;9.252;2022-08-02T11:52:37;7.05;;;3.30;;
70733;SDS011;58320;48.804;9.252;2022-08-02T11:55:03;4.85;;;3.30;;
70733;SDS011;58320;48.804;9.252;2022-08-02T11:57:34;3.80;;;3.17;;
70733;SDS011;58320;48.804;9.252;2022-08-02T12:00:00;3.85;;;2.70;;
70733;SDS011;58320;48.804;9.252;2022-08-02T12:02:29;4.00;;;3.05;;
70733;SDS011;58320;48.804;9.252;2022-08-02T12:05:05;6.13;;;3.33;;
70733;SDS011;58320;48.804;9.252;2022-08-02T12:07:32;4.00;;;3.05;;
70733;SDS011;58320;48.804;9.252;2022-08-02T12:10:08;4.43;;;2.70;;
70733;SDS011;58320;48.804;9.252;2022-08-02T12:13:13;3.80;;;2.80;;
70733;SDS011;58320;48.804;9.252;2022-08-02T12:15:40;4.00;;;3.17;;
70733;SDS011;58320;48.804;9.252;2022-08-02T12:18:12;5.10;;;3.20;;
70733;SDS011;58320;48.804;9.252;2022-08-02T12:21:02;5.15;;;3.00;;
70733;SDS011;58320;48.804;9.252;2022-08-02T12:23:49;4.97;;;3.05;;
70733;SDS011;58320;48.804;9.252;2022-08-02T12:26:15;3.80;;;3.00;;
70733;SDS011;58320;48.804;9.252;2022-08-02T12:28:41;4.55;;;3.13;;
70733;SDS011;58320;48.804;9.252;2022-08-02T12:31:07;4.90;;;3.30;;
70733;SDS011;58320;48.804;9.252;2022-08-02T12:33:45;5.55;;;3.10;;
70733;SDS011;58320;48.804;9.252;2022-08-02T12:36:18;4.55;;;3.58;;
70733;SDS011;58320;48.804;9.252;2022-08-02T12:41:23;6.20;;;3.20;;
70733;SDS011;58320;48.804;9.252;2022-08-02T12:43:51;4.50;;;2.90;;
70733;SDS011;58320;48.804;9.252;2022-08-02T12:46:19;4.47;;;2.95;;
70733;SDS011;58320;48.804;9.252;2022-08-02T12:48:47;5.72;;;3.05;;
70733;SDS011;58320;48.804;9.252;2022-08-02T12:53:53;3.77;;;2.90;;
70733;SDS011;58320;48.804;9.252;2022-08-02T12:56:39;3.85;;;2.53;;
70733;SDS011;58320;48.804;9.252;2022-08-02T12:59:05;3.60;;;2.97;;
70733;SDS011;58320;48.804;9.252;2022-08-02T13:01:31;4.15;;;2.80;;
70733;SDS011;58320;48.804;9.252;2022-08-02T13:03:57;3.75;;;2.58;;
70733;SDS011;58320;48.804;9.252;2022-08-02T13:06:23;3.40;;;2.40;;
70733;SDS011;58320;48.804;9.252;2022-08-02T13:08:50;5.07;;;2.83;;
70733;SDS011;58320;48.804;9.252;2022-08-02T13:11:22;5.78;;;2.90;;
70733;SDS011;58320;48.804;9.252;2022-08-02T13:13:49;4.60;;;2.57;;
70733;SDS011;58320;48.804;9.252;2022-08-02T13:16:15;4.07;;;3.20;;
70733;SDS011;58320;48.804;9.252;2022-08-02T13:18:41;4.97;;;3.30;;
70733;SDS011;58320;48.804;9.252;2022-08-02T13:21:09;4.70;;;3.25;;
70733;SDS011;58320;48.804;9.252;2022-08-02T13:23:36;3.80;;;2.92;;
70733;SDS011;58320;48.804;9.252;2022-08-02T13:26:03;4.07;;;2.90;;
70733;SDS011;58320;48.804;9.252;2022-08-02T13:28:29;4.40;;;3.20;;
70733;SDS011;58320;48.804;9.252;2022-08-02T13:30:55;4.67;;;3.00;;
70733;SDS011;58320;48.804;9.252;2022-08-02T13:33:21;5.10;;;2.97;;
70733;SDS011;58320;48.804;9.252;2022-08-02T13:35:47;6.35;;;3.03;;
70733;SDS011;58320;48.804;9.252;2022-08-02T13:38:14;3.95;;;2.40;;
70733;SDS011;58320;48.804;9.252;2022-08-02T13:40:39;4.00;;;3.00;;
70733;SDS011;58320;48.804;9.252;2022-08-02T13:43:24;4.30;;;3.00;;
70733;SDS011;58320;48.804;9.252;2022-08-02T13:45:52;7.53;;;2.85;;
70733;SDS011;58320;48.804;9.252;2022-08-02T13:48:18;4.25;;;2.60;;
70733;SDS011;58320;48.804;9.252;2022-08-02T13:50:44;5.22;;;2.90;;
70733;SDS011;58320;48.804;9.252;2022-08-02T13:53:10;4.47;;;2.40;;
70733;SDS011;58320;48.804;9.252;2022-08-02T13:55:36;4.53;;;3.08;;
70733;SDS011;58320;48.804;9.252;2022-08-02T13:58:02;4.20;;;2.87;;
70733;SDS011;58320;48.804;9.252;2022-08-02T14:00:29;3.90;;;2.83;;
70733;SDS011;58320;48.804;9.252;2022-08-02T14:02:55;3.92;;;2.63;;
70733;SDS011;58320;48.804;9.252;2022-08-02T14:05:21;5.50;;;3.00;;
70733;SDS011;58320;48.804;9.252;2022-08-02T14:07:48;5.93;;;2.88;;
70733;SDS011;58320;48.804;9.252;2022-08-02T14:10:14;4.13;;;2.77;;
70733;SDS011;58320;48.804;9.252;2022-08-02T14:12:40;4.00;;;2.60;;
70733;SDS011;58320;48.804;9.252;2022-08-02T14:15:06;3.43;;;2.43;;
70733;SDS011;58320;48.804;9.252;2022-08-02T14:17:33;4.47;;;2.65;;
70733;SDS011;58320;48.804;9.252;2022-08-02T14:19:59;4.15;;;2.60;;
70733;SDS011;58320;48.804;9.252;2022-08-02T14:22:24;4.18;;;2.22;;
70733;SDS011;58320;48.804;9.252;2022-08-02T14:24:52;4.77;;;2.40;;
70733;SDS011;58320;48.804;9.252;2022-08-02T14:27:18;3.17;;;2.30;;
70733;SDS011;58320;48.804;9.252;2022-08-02T14:29:44;4.65;;;2.58;;
70733;SDS011;58320;48.804;9.252;2022-08-02T14:32:12;3.67;;;2.40;;
70733;SDS011;58320;48.804;9.252;2022-08-02T14:34:37;3.30;;;2.00;;
70733;SDS011;58320;48.804;9.252;2022-08-02T14:37:03;3.90;;;2.50;;
70733;SDS011;58320;48.804;9.252;2022-08-02T14:39:29;3.63;;;2.22;;
70733;SDS011;58320;48.804;9.252;2022-08-02T14:41:55;3.47;;;2.30;;
70733;SDS011;58320;48.804;9.252;2022-08-02T14:44:21;3.20;;;2.10;;
70733;SDS011;58320;48.804;9.252;2022-08-02T14:46:47;4.22;;;2.67;;
70733;SDS011;58320;48.804;9.252;2022-08-02T14:49:13;3.67;;;2.40;;
70733;SDS011;58320;48.804;9.252;2022-08-02T14:51:39;3.70;;;2.30;;
70733;SDS011;58320;48.804;9.252;2022-08-02T14:54:05;5.15;;;2.35;;
70733;SDS011;58320;48.804;9.252;2022-08-02T14:56:32;4.20;;;2.40;;
70733;SDS011;58320;48.804;9.252;2022-08-02T14:58:59;3.58;;;2.45;;
70733;SDS011;58320;48.804;9.252;2022-08-02T15:01:25;3.93;;;2.03;;
70733;SDS011;58320;48.804;9.252;2022-08-02T15:03:51;6.83;;;2.80;;
70733;SDS011;58320;48.804;9.252;2022-08-02T15:06:17;3.90;;;2.50;;
70733;SDS011;58320;48.804;9.252;2022-08-02T15:08:43;4.15;;;2.17;;
70733;SDS011;58320;48.804;9.252;2022-08-02T15:11:08;3.55;;;2.22;;
70733;SDS011;58320;48.804;9.252;2022-08-02T15:13:34;4.93;;;2.23;;
70733;SDS011;58320;48.804;9.252;2022-08-02T15:16:00;3.92;;;2.50;;
70733;SDS011;58320;48.804;9.252;2022-08-02T15:18:26;3.47;;;2.50;;
70733;SDS011;58320;48.804;9.252;2022-08-02T15:20:52;3.73;;;2.07;;
70733;SDS011;58320;48.804;9.252;2022-08-02T15:23:19;3.95;;;2.38;;
70733;SDS011;58320;48.804;9.252;2022-08-02T15:25:44;3.10;;;2.10;;
70733;SDS011;58320;48.804;9.252;2022-08-02T15:28:10;3.38;;;2.10;;
70733;SDS011;58320;48.804;9.252;2022-08-02T15:30:36;3.03;;;1.73;;
70733;SDS011;58320;48.804;9.252;2022-08-02T15:33:03;3.20;;;1.92;;
70733;SDS011;58320;48.804;9.252;2022-08-02T15:35:29;3.30;;;1.88;;
70733;SDS011;58320;48.804;9.252;2022-08-02T15:37:56;5.13;;;2.30;;
70733;SDS011;58320;48.804;9.252;2022-08-02T15:40:22;3.78;;;2.25;;
70733;SDS011;58320;48.804;9.252;2022-08-02T15:42:48;3.87;;;2.00;;
70733;SDS011;58320;48.804;9.252;2022-08-02T15:45:14;4.18;;;2.17;;
70733;SDS011;58320;48.804;9.252;2022-08-02T15:47:41;3.38;;;2.10;;